sensor_id;sensor_type;location;lat;lon;timestamp;P1;durP1;ratioP1;P2;durP2;ratioP2
6979;SDS011;3530;52.832;10.680;2023-06-10T00:02:19;3.08;;;2.60;;
6979;SDS011;3530;52.832;10.680;2023-06-10T00:05:05;5.15;;;3.65;;
6979;SDS011;3530;52.832;10.680;2023-06-10T00:07:52;4.28;;;3.40;;
6979;SDS011;3530;52.832;10.680;2023-06-10T00:10:41;5.78;;;3.42;;
6979;SDS011;3530;52.832;10.680;2023-06-10T00:13:27;4.95;;;3.45;;
6979;SDS011;3530;52.832;10.680;2023-06-10T00:16:12;8.15;;;3.08;;
6979;SDS011;3530;52.832;10.680;2023-06-10T00:19:02;5.90;;;3.38;;
6979;SDS011;3530;52.832;10.680;2023-06-10T00:21:48;4.85;;;3.03;;
6979;SDS011;3530;52.832;10.680;2023-06-10T00:24:36;5.18;;;2.95;;
6979;SDS011;3530;52.832;10.680;2023-06-10T00:27:22;7.55;;;3.28;;
6979;SDS011;3530;52.832;10.680;2023-06-10T00:30:08;6.90;;;3.53;;
6979;SDS011;3530;52.832;10.680;2023-06-10T00:32:54;5.68;;;3.15;;
6979;SDS011;3530;52.832;10.680;2023-06-10T00:35:39;4.22;;;3.25;;
6979;SDS011;3530;52.832;10.680;2023-06-10T00:38:25;7.28;;;3.85;;
6979;SDS011;3530;52.832;10.680;2023-06-10T00:41:10;6.18;;;4.85;;
6979;SDS011;3530;52.832;10.680;2023-06-10T00:43:56;4.22;;;3.63;;
6979;SDS011;3530;52.832;10.680;2023-06-10T00:46:42;4.45;;;3.53;;
6979;SDS011;3530;52.832;10.680;2023-06-10T00:49:28;6.07;;;4.38;;
6979;SDS011;3530;52.832;10.680;2023-06-10T00:52:14;6.78;;;3.63;;
6979;SDS011;3530;52.832;10.680;2023-06-10T00:55:00;5.53;;;3.88;;
6979;SDS011;3530;52.832;10.680;2023-06-10T00:57:46;8.10;;;4.05;;
6979;SDS011;3530;52.832;10.680;2023-06-10T01:00:33;7.50;;;4.43;;
6979;SDS011;3530;52.832;10.680;2023-06-10T01:03:19;5.72;;;3.75;;
6979;SDS011;3530;52.832;10.680;2023-06-10T01:06:07;6.03;;;4.20;;
6979;SDS011;3530;52.832;10.680;2023-06-10T01:09:18;7.60;;;4.25;;
6979;SDS011;3530;52.832;10.680;2023-06-10T01:15:23;4.93;;;4.22;;
6979;SDS011;3530;52.832;10.680;2023-06-10T01:18:09;3.95;;;3.65;;
6979;SDS011;3530;52.832;10.680;2023-06-10T01:20:55;5.25;;;4.00;;
6979;SDS011;3530;52.832;10.680;2023-06-10T01:23:41;5.97;;;4.60;;
6979;SDS011;3530;52.832;10.680;2023-06-10T01:26:30;4.90;;;4.13;;
6979;SDS011;3530;52.832;10.680;2023-06-10T01:29:18;3.97;;;3.38;;
6979;SDS011;3530;52.832;10.680;2023-06-10T01:32:12;8.43;;;4.22;;
6979;SDS011;3530;52.832;10.680;2023-06-10T01:35:03;6.22;;;4.05;;
6979;SDS011;3530;52.832;10.680;2023-06-10T01:37:50;6.15;;;4.00;;
6979;SDS011;3530;52.832;10.680;2023-06-10T01:40:38;7.95;;;4.35;;
6979;SDS011;3530;52.832;10.680;2023-06-10T01:43:24;5.18;;;3.60;;
6979;SDS011;3530;52.832;10.680;2023-06-10T01:46:10;7.03;;;3.75;;
6979;SDS011;3530;52.832;10.680;2023-06-10T01:48:56;7.03;;;4.45;;
6979;SDS011;3530;52.832;10.680;2023-06-10T01:51:42;9.32;;;5.03;;
6979;SDS011;3530;52.832;10.680;2023-06-10T01:54:27;5.55;;;4.22;;
6979;SDS011;3530;52.832;10.680;2023-06-10T01:57:13;10.70;;;5.07;;
6979;SDS011;3530;52.832;10.680;2023-06-10T01:59:59;13.82;;;5.53;;
6979;SDS011;3530;52.832;10.680;2023-06-10T02:02:44;7.15;;;4.32;;
6979;SDS011;3530;52.832;10.680;2023-06-10T02:05:30;6.55;;;4.28;;
6979;SDS011;3530;52.832;10.680;2023-06-10T02:08:16;4.95;;;4.00;;
6979;SDS011;3530;52.832;10.680;2023-06-10T02:11:01;6.30;;;4.28;;
6979;SDS011;3530;52.832;10.680;2023-06-10T02:13:47;5.35;;;4.20;;
6979;SDS011;3530;52.832;10.680;2023-06-10T02:16:33;5.80;;;4.25;;
6979;SDS011;3530;52.832;10.680;2023-06-10T02:19:18;5.30;;;4.30;;
6979;SDS011;3530;52.832;10.680;2023-06-10T02:22:06;38.13;;;6.70;;
6979;SDS011;3530;52.832;10.680;2023-06-10T02:24:52;21.40;;;5.65;;
6979;SDS011;3530;52.832;10.680;2023-06-10T02:27:38;10.25;;;5.10;;
6979;SDS011;3530;52.832;10.680;2023-06-10T02:30:23;8.00;;;5.00;;
6979;SDS011;3530;52.832;10.680;2023-06-10T02:33:09;5.88;;;4.15;;
6979;SDS011;3530;52.832;10.680;2023-06-10T02:35:57;5.35;;;4.50;;
6979;SDS011;3530;52.832;10.680;2023-06-10T02:38:43;4.97;;;4.20;;
6979;SDS011;3530;52.832;10.680;2023-06-10T02:41:28;7.72;;;4.53;;
6979;SDS011;3530;52.832;10.680;2023-06-10T02:44:14;5.85;;;5.03;;
6979;SDS011;3530;52.832;10.680;2023-06-10T02:47:00;7.88;;;5.38;;
6979;SDS011;3530;52.832;10.680;2023-06-10T02:49:45;6.75;;;4.32;;
6979;SDS011;3530;52.832;10.680;2023-06-10T02:52:31;4.88;;;4.38;;
6979;SDS011;3530;52.832;10.680;2023-06-10T02:55:17;7.80;;;4.50;;
6979;SDS011;3530;52.832;10.680;2023-06-10T02:58:02;9.43;;;4.53;;
6979;SDS011;3530;52.832;10.680;2023-06-10T03:00:48;7.63;;;4.60;;
6979;SDS011;3530;52.832;10.680;2023-06-10T03:03:34;4.10;;;3.78;;
6979;SDS011;3530;52.832;10.680;2023-06-10T03:06:20;8.45;;;4.28;;
6979;SDS011;3530;52.832;10.680;2023-06-10T03:09:06;7.20;;;4.55;;
6979;SDS011;3530;52.832;10.680;2023-06-10T03:11:52;11.20;;;4.43;;
6979;SDS011;3530;52.832;10.680;2023-06-10T03:14:38;4.57;;;4.18;;
6979;SDS011;3530;52.832;10.680;2023-06-10T03:17:24;6.63;;;4.35;;
6979;SDS011;3530;52.832;10.680;2023-06-10T03:20:09;9.13;;;4.72;;
6979;SDS011;3530;52.832;10.680;2023-06-10T03:22:55;11.63;;;3.90;;
6979;SDS011;3530;52.832;10.680;2023-06-10T03:25:41;6.30;;;4.78;;
6979;SDS011;3530;52.832;10.680;2023-06-10T03:28:27;5.72;;;3.90;;
6979;SDS011;3530;52.832;10.680;2023-06-10T03:31:12;7.72;;;4.47;;
6979;SDS011;3530;52.832;10.680;2023-06-10T03:33:58;8.02;;;3.85;;
6979;SDS011;3530;52.832;10.680;2023-06-10T03:36:44;6.28;;;4.60;;
6979;SDS011;3530;52.832;10.680;2023-06-10T03:39:29;7.40;;;4.22;;
6979;SDS011;3530;52.832;10.680;2023-06-10T03:42:15;5.18;;;4.35;;
6979;SDS011;3530;52.832;10.680;2023-06-10T03:45:01;5.28;;;4.50;;
6979;SDS011;3530;52.832;10.680;2023-06-10T03:47:47;4.85;;;4.05;;
6979;SDS011;3530;52.832;10.680;2023-06-10T03:50:33;6.82;;;4.15;;
6979;SDS011;3530;52.832;10.680;2023-06-10T03:53:19;5.80;;;3.97;;
6979;SDS011;3530;52.832;10.680;2023-06-10T03:56:05;7.32;;;4.35;;
6979;SDS011;3530;52.832;10.680;2023-06-10T03:58:51;8.85;;;4.80;;
6979;SDS011;3530;52.832;10.680;2023-06-10T04:01:36;9.00;;;3.95;;
6979;SDS011;3530;52.832;10.680;2023-06-10T04:04:23;5.25;;;3.38;;
6979;SDS011;3530;52.832;10.680;2023-06-10T04:07:08;4.90;;;3.45;;
6979;SDS011;3530;52.832;10.680;2023-06-10T04:09:54;5.75;;;3.80;;
6979;SDS011;3530;52.832;10.680;2023-06-10T04:12:41;8.20;;;4.13;;
6979;SDS011;3530;52.832;10.680;2023-06-10T04:15:27;6.07;;;4.85;;
6979;SDS011;3530;52.832;10.680;2023-06-10T04:18:12;9.65;;;4.55;;
6979;SDS011;3530;52.832;10.680;2023-06-10T04:20:58;5.00;;;3.55;;
6979;SDS011;3530;52.832;10.680;2023-06-10T04:23:44;6.88;;;3.72;;
6979;SDS011;3530;52.832;10.680;2023-06-10T04:26:29;5.70;;;4.05;;
6979;SDS011;3530;52.832;10.680;2023-06-10T04:29:15;10.50;;;4.70;;
6979;SDS011;3530;52.832;10.680;2023-06-10T04:32:01;11.55;;;3.78;;
6979;SDS011;3530;52.832;10.680;2023-06-10T04:34:47;7.13;;;4.25;;
6979;SDS011;3530;52.832;10.680;2023-06-10T04:37:32;5.80;;;3.75;;
6979;SDS011;3530;52.832;10.680;2023-06-10T04:40:18;7.20;;;3.75;;
6979;SDS011;3530;52.832;10.680;2023-06-10T04:43:04;6.97;;;4.60;;
6979;SDS011;3530;52.832;10.680;2023-06-10T04:45:49;3.33;;;3.03;;
6979;SDS011;3530;52.832;10.680;2023-06-10T04:48:35;7.55;;;4.20;;
6979;SDS011;3530;52.832;10.680;2023-06-10T04:51:21;7.57;;;3.83;;
6979;SDS011;3530;52.832;10.680;2023-06-10T04:54:06;5.07;;;3.40;;
6979;SDS011;3530;52.832;10.680;2023-06-10T04:56:52;4.60;;;3.28;;
6979;SDS011;3530;52.832;10.680;2023-06-10T04:59:38;7.45;;;3.78;;
6979;SDS011;3530;52.832;10.680;2023-06-10T05:02:23;8.00;;;3.60;;
6979;SDS011;3530;52.832;10.680;2023-06-10T05:05:09;4.07;;;3.30;;
6979;SDS011;3530;52.832;10.680;2023-06-10T05:07:55;6.75;;;3.70;;
6979;SDS011;3530;52.832;10.680;2023-06-10T05:10:40;3.22;;;2.92;;
6979;SDS011;3530;52.832;10.680;2023-06-10T05:13:26;9.48;;;3.88;;
6979;SDS011;3530;52.832;10.680;2023-06-10T05:16:12;4.65;;;3.28;;
6979;SDS011;3530;52.832;10.680;2023-06-10T05:18:57;7.05;;;3.65;;
6979;SDS011;3530;52.832;10.680;2023-06-10T05:21:44;5.43;;;3.58;;
6979;SDS011;3530;52.832;10.680;2023-06-10T05:24:30;4.15;;;2.67;;
6979;SDS011;3530;52.832;10.680;2023-06-10T05:27:15;7.80;;;3.55;;
6979;SDS011;3530;52.832;10.680;2023-06-10T05:30:01;7.97;;;3.47;;
6979;SDS011;3530;52.832;10.680;2023-06-10T05:32:49;8.07;;;3.53;;
6979;SDS011;3530;52.832;10.680;2023-06-10T05:35:36;5.68;;;3.42;;
6979;SDS011;3530;52.832;10.680;2023-06-10T05:38:22;8.43;;;3.25;;
6979;SDS011;3530;52.832;10.680;2023-06-10T05:41:07;5.57;;;3.05;;
6979;SDS011;3530;52.832;10.680;2023-06-10T05:43:53;4.03;;;2.83;;
6979;SDS011;3530;52.832;10.680;2023-06-10T05:46:39;3.70;;;2.88;;
6979;SDS011;3530;52.832;10.680;2023-06-10T05:49:24;7.13;;;3.05;;
6979;SDS011;3530;52.832;10.680;2023-06-10T05:52:10;5.57;;;3.30;;
6979;SDS011;3530;52.832;10.680;2023-06-10T05:54:56;3.78;;;2.90;;
6979;SDS011;3530;52.832;10.680;2023-06-10T05:57:41;6.20;;;2.60;;
6979;SDS011;3530;52.832;10.680;2023-06-10T06:00:27;5.68;;;2.88;;
6979;SDS011;3530;52.832;10.680;2023-06-10T06:03:13;6.38;;;3.30;;
6979;SDS011;3530;52.832;10.680;2023-06-10T06:05:58;8.50;;;3.00;;
6979;SDS011;3530;52.832;10.680;2023-06-10T06:08:44;6.18;;;3.20;;
6979;SDS011;3530;52.832;10.680;2023-06-10T06:11:30;5.82;;;3.05;;
6979;SDS011;3530;52.832;10.680;2023-06-10T06:14:15;7.13;;;2.90;;
6979;SDS011;3530;52.832;10.680;2023-06-10T06:17:01;6.10;;;3.38;;
6979;SDS011;3530;52.832;10.680;2023-06-10T06:19:47;6.63;;;3.40;;
6979;SDS011;3530;52.832;10.680;2023-06-10T06:22:33;4.05;;;3.00;;
6979;SDS011;3530;52.832;10.680;2023-06-10T06:25:18;4.43;;;2.75;;
6979;SDS011;3530;52.832;10.680;2023-06-10T06:28:07;5.03;;;2.65;;
6979;SDS011;3530;52.832;10.680;2023-06-10T06:30:56;5.47;;;2.97;;
6979;SDS011;3530;52.832;10.680;2023-06-10T06:33:42;6.10;;;2.70;;
6979;SDS011;3530;52.832;10.680;2023-06-10T06:36:27;6.57;;;3.05;;
6979;SDS011;3530;52.832;10.680;2023-06-10T06:39:13;6.22;;;2.83;;
6979;SDS011;3530;52.832;10.680;2023-06-10T06:41:59;5.68;;;3.17;;
6979;SDS011;3530;52.832;10.680;2023-06-10T06:44:44;8.50;;;3.28;;
6979;SDS011;3530;52.832;10.680;2023-06-10T06:47:30;4.55;;;3.20;;
6979;SDS011;3530;52.832;10.680;2023-06-10T06:50:16;5.88;;;3.08;;
6979;SDS011;3530;52.832;10.680;2023-06-10T06:53:02;6.88;;;3.78;;
6979;SDS011;3530;52.832;10.680;2023-06-10T06:55:48;7.70;;;3.00;;
6979;SDS011;3530;52.832;10.680;2023-06-10T06:58:33;6.10;;;3.35;;
6979;SDS011;3530;52.832;10.680;2023-06-10T07:01:19;5.00;;;3.20;;
6979;SDS011;3530;52.832;10.680;2023-06-10T07:04:05;4.80;;;3.40;;
6979;SDS011;3530;52.832;10.680;2023-06-10T07:06:50;7.80;;;3.17;;
6979;SDS011;3530;52.832;10.680;2023-06-10T07:09:37;10.65;;;3.25;;
6979;SDS011;3530;52.832;10.680;2023-06-10T07:12:23;8.10;;;3.47;;
6979;SDS011;3530;52.832;10.680;2023-06-10T07:15:09;5.60;;;3.25;;
6979;SDS011;3530;52.832;10.680;2023-06-10T07:17:55;7.03;;;3.78;;
6979;SDS011;3530;52.832;10.680;2023-06-10T07:20:40;7.78;;;3.97;;
6979;SDS011;3530;52.832;10.680;2023-06-10T07:23:26;6.22;;;3.40;;
6979;SDS011;3530;52.832;10.680;2023-06-10T07:26:12;3.33;;;2.90;;
6979;SDS011;3530;52.832;10.680;2023-06-10T07:28:58;9.13;;;3.17;;
6979;SDS011;3530;52.832;10.680;2023-06-10T07:31:44;5.57;;;2.97;;
6979;SDS011;3530;52.832;10.680;2023-06-10T07:34:29;7.63;;;3.22;;
6979;SDS011;3530;52.832;10.680;2023-06-10T07:37:15;4.05;;;2.83;;
6979;SDS011;3530;52.832;10.680;2023-06-10T07:40:01;5.75;;;3.33;;
6979;SDS011;3530;52.832;10.680;2023-06-10T07:42:46;3.65;;;3.35;;
6979;SDS011;3530;52.832;10.680;2023-06-10T07:45:32;5.82;;;3.05;;
6979;SDS011;3530;52.832;10.680;2023-06-10T07:48:18;7.25;;;3.25;;
6979;SDS011;3530;52.832;10.680;2023-06-10T07:51:03;6.18;;;3.83;;
6979;SDS011;3530;52.832;10.680;2023-06-10T07:53:49;4.85;;;3.22;;
6979;SDS011;3530;52.832;10.680;2023-06-10T07:56:35;6.22;;;3.63;;
6979;SDS011;3530;52.832;10.680;2023-06-10T07:59:20;8.88;;;3.72;;
6979;SDS011;3530;52.832;10.680;2023-06-10T08:02:06;3.80;;;3.03;;
6979;SDS011;3530;52.832;10.680;2023-06-10T08:04:52;4.30;;;3.10;;
6979;SDS011;3530;52.832;10.680;2023-06-10T08:07:37;9.02;;;4.20;;
6979;SDS011;3530;52.832;10.680;2023-06-10T08:10:24;5.60;;;3.35;;
6979;SDS011;3530;52.832;10.680;2023-06-10T08:13:10;6.97;;;3.72;;
6979;SDS011;3530;52.832;10.680;2023-06-10T08:15:55;7.03;;;3.92;;
6979;SDS011;3530;52.832;10.680;2023-06-10T08:18:41;8.07;;;2.95;;
6979;SDS011;3530;52.832;10.680;2023-06-10T08:21:27;4.30;;;3.47;;
6979;SDS011;3530;52.832;10.680;2023-06-10T08:24:13;3.30;;;3.00;;
6979;SDS011;3530;52.832;10.680;2023-06-10T08:27:01;3.78;;;3.40;;
6979;SDS011;3530;52.832;10.680;2023-06-10T08:29:47;4.45;;;3.47;;
6979;SDS011;3530;52.832;10.680;2023-06-10T08:32:33;5.60;;;3.67;;
6979;SDS011;3530;52.832;10.680;2023-06-10T08:35:18;5.38;;;3.65;;
6979;SDS011;3530;52.832;10.680;2023-06-10T08:38:04;5.68;;;3.95;;
6979;SDS011;3530;52.832;10.680;2023-06-10T08:40:50;6.35;;;3.88;;
6979;SDS011;3530;52.832;10.680;2023-06-10T08:43:45;4.05;;;3.65;;
6979;SDS011;3530;52.832;10.680;2023-06-10T08:46:33;4.47;;;3.35;;
6979;SDS011;3530;52.832;10.680;2023-06-10T08:49:20;5.60;;;3.35;;
6979;SDS011;3530;52.832;10.680;2023-06-10T08:52:06;6.72;;;3.10;;
6979;SDS011;3530;52.832;10.680;2023-06-10T08:54:54;4.43;;;3.53;;
6979;SDS011;3530;52.832;10.680;2023-06-10T08:57:42;6.05;;;4.03;;
6979;SDS011;3530;52.832;10.680;2023-06-10T09:00:30;6.10;;;3.28;;
6979;SDS011;3530;52.832;10.680;2023-06-10T09:03:16;7.50;;;4.70;;
6979;SDS011;3530;52.832;10.680;2023-06-10T09:06:03;7.03;;;3.88;;
6979;SDS011;3530;52.832;10.680;2023-06-10T09:08:50;5.65;;;3.75;;
6979;SDS011;3530;52.832;10.680;2023-06-10T09:11:36;9.63;;;4.10;;
6979;SDS011;3530;52.832;10.680;2023-06-10T09:14:22;5.30;;;3.60;;
6979;SDS011;3530;52.832;10.680;2023-06-10T09:17:08;4.50;;;3.50;;
6979;SDS011;3530;52.832;10.680;2023-06-10T09:19:54;5.18;;;4.15;;
6979;SDS011;3530;52.832;10.680;2023-06-10T09:22:41;5.05;;;4.05;;
6979;SDS011;3530;52.832;10.680;2023-06-10T09:25:34;4.93;;;4.13;;
6979;SDS011;3530;52.832;10.680;2023-06-10T09:28:22;5.55;;;3.97;;
6979;SDS011;3530;52.832;10.680;2023-06-10T09:31:07;5.68;;;4.70;;
6979;SDS011;3530;52.832;10.680;2023-06-10T09:33:54;7.95;;;4.72;;
6979;SDS011;3530;52.832;10.680;2023-06-10T09:36:39;6.95;;;5.18;;
6979;SDS011;3530;52.832;10.680;2023-06-10T09:39:25;7.90;;;4.90;;
6979;SDS011;3530;52.832;10.680;2023-06-10T09:42:17;8.60;;;4.90;;
6979;SDS011;3530;52.832;10.680;2023-06-10T09:45:04;7.70;;;5.43;;
6979;SDS011;3530;52.832;10.680;2023-06-10T09:47:51;7.13;;;5.32;;
6979;SDS011;3530;52.832;10.680;2023-06-10T09:50:41;5.72;;;4.45;;
6979;SDS011;3530;52.832;10.680;2023-06-10T09:53:28;6.70;;;4.60;;
6979;SDS011;3530;52.832;10.680;2023-06-10T09:56:19;5.38;;;4.88;;
6979;SDS011;3530;52.832;10.680;2023-06-10T09:59:06;6.35;;;5.30;;
6979;SDS011;3530;52.832;10.680;2023-06-10T10:01:54;5.40;;;4.80;;
6979;SDS011;3530;52.832;10.680;2023-06-10T10:04:41;7.03;;;4.88;;
6979;SDS011;3530;52.832;10.680;2023-06-10T10:07:27;5.82;;;5.28;;
6979;SDS011;3530;52.832;10.680;2023-06-10T10:10:13;6.35;;;5.70;;
6979;SDS011;3530;52.832;10.680;2023-06-10T10:13:00;7.63;;;5.53;;
6979;SDS011;3530;52.832;10.680;2023-06-10T10:15:46;10.80;;;6.35;;
6979;SDS011;3530;52.832;10.680;2023-06-10T10:18:33;6.00;;;4.70;;
6979;SDS011;3530;52.832;10.680;2023-06-10T10:21:25;5.90;;;5.30;;
6979;SDS011;3530;52.832;10.680;2023-06-10T10:24:19;8.43;;;4.93;;
6979;SDS011;3530;52.832;10.680;2023-06-10T10:27:17;7.18;;;5.18;;
6979;SDS011;3530;52.832;10.680;2023-06-10T10:30:04;12.48;;;5.53;;
6979;SDS011;3530;52.832;10.680;2023-06-10T10:32:57;6.75;;;5.20;;
6979;SDS011;3530;52.832;10.680;2023-06-10T10:35:49;6.22;;;5.63;;
6979;SDS011;3530;52.832;10.680;2023-06-10T10:38:35;6.07;;;5.18;;
6979;SDS011;3530;52.832;10.680;2023-06-10T10:41:21;6.90;;;5.47;;
6979;SDS011;3530;52.832;10.680;2023-06-10T10:44:08;8.00;;;5.68;;
6979;SDS011;3530;52.832;10.680;2023-06-10T10:46:54;9.10;;;6.15;;
6979;SDS011;3530;52.832;10.680;2023-06-10T10:49:42;5.95;;;5.35;;
6979;SDS011;3530;52.832;10.680;2023-06-10T10:52:46;7.55;;;5.00;;
6979;SDS011;3530;52.832;10.680;2023-06-10T10:55:41;7.65;;;6.10;;
6979;SDS011;3530;52.832;10.680;2023-06-10T10:58:27;6.68;;;5.40;;
6979;SDS011;3530;52.832;10.680;2023-06-10T11:01:13;5.38;;;4.78;;
6979;SDS011;3530;52.832;10.680;2023-06-10T11:04:00;9.85;;;5.88;;
6979;SDS011;3530;52.832;10.680;2023-06-10T11:06:52;8.20;;;6.03;;
6979;SDS011;3530;52.832;10.680;2023-06-10T11:09:38;7.00;;;5.70;;
6979;SDS011;3530;52.832;10.680;2023-06-10T11:15:31;5.78;;;4.88;;
6979;SDS011;3530;52.832;10.680;2023-06-10T11:18:22;5.40;;;4.45;;
6979;SDS011;3530;52.832;10.680;2023-06-10T11:21:16;8.35;;;4.72;;
6979;SDS011;3530;52.832;10.680;2023-06-10T11:24:11;4.90;;;4.50;;
6979;SDS011;3530;52.832;10.680;2023-06-10T11:27:16;5.60;;;4.70;;
6979;SDS011;3530;52.832;10.680;2023-06-10T11:32:51;7.90;;;5.47;;
6979;SDS011;3530;52.832;10.680;2023-06-10T11:35:38;9.38;;;5.50;;
6979;SDS011;3530;52.832;10.680;2023-06-10T11:38:24;6.18;;;5.18;;
6979;SDS011;3530;52.832;10.680;2023-06-10T11:41:19;5.38;;;4.88;;
6979;SDS011;3530;52.832;10.680;2023-06-10T11:44:07;5.82;;;5.22;;
6979;SDS011;3530;52.832;10.680;2023-06-10T11:46:56;6.00;;;5.50;;
6979;SDS011;3530;52.832;10.680;2023-06-10T11:49:42;6.03;;;5.30;;
6979;SDS011;3530;52.832;10.680;2023-06-10T11:52:28;8.07;;;4.47;;
6979;SDS011;3530;52.832;10.680;2023-06-10T11:55:17;4.53;;;4.20;;
6979;SDS011;3530;52.832;10.680;2023-06-10T11:58:02;6.35;;;5.03;;
6979;SDS011;3530;52.832;10.680;2023-06-10T12:03:37;4.53;;;4.20;;
6979;SDS011;3530;52.832;10.680;2023-06-10T12:06:23;6.07;;;5.43;;
6979;SDS011;3530;52.832;10.680;2023-06-10T12:12:03;5.60;;;5.03;;
6979;SDS011;3530;52.832;10.680;2023-06-10T12:14:50;7.97;;;5.47;;
6979;SDS011;3530;52.832;10.680;2023-06-10T12:17:38;7.13;;;5.20;;
6979;SDS011;3530;52.832;10.680;2023-06-10T12:20:25;5.32;;;4.82;;
6979;SDS011;3530;52.832;10.680;2023-06-10T12:23:12;5.85;;;4.72;;
6979;SDS011;3530;52.832;10.680;2023-06-10T12:25:58;6.10;;;4.43;;
6979;SDS011;3530;52.832;10.680;2023-06-10T12:28:50;6.30;;;5.55;;
6979;SDS011;3530;52.832;10.680;2023-06-10T12:31:51;4.72;;;4.15;;
6979;SDS011;3530;52.832;10.680;2023-06-10T12:34:41;4.72;;;4.32;;
6979;SDS011;3530;52.832;10.680;2023-06-10T12:37:26;6.50;;;4.65;;
6979;SDS011;3530;52.832;10.680;2023-06-10T12:40:12;5.45;;;4.95;;
6979;SDS011;3530;52.832;10.680;2023-06-10T12:42:58;6.35;;;4.75;;
6979;SDS011;3530;52.832;10.680;2023-06-10T12:45:44;4.85;;;4.40;;
6979;SDS011;3530;52.832;10.680;2023-06-10T12:48:30;6.15;;;4.25;;
6979;SDS011;3530;52.832;10.680;2023-06-10T12:51:15;5.68;;;4.70;;
6979;SDS011;3530;52.832;10.680;2023-06-10T12:54:01;6.18;;;4.63;;
6979;SDS011;3530;52.832;10.680;2023-06-10T12:56:47;6.05;;;4.82;;
6979;SDS011;3530;52.832;10.680;2023-06-10T12:59:33;7.05;;;4.50;;
6979;SDS011;3530;52.832;10.680;2023-06-10T13:02:19;6.40;;;4.63;;
6979;SDS011;3530;52.832;10.680;2023-06-10T13:05:05;5.97;;;4.93;;
6979;SDS011;3530;52.832;10.680;2023-06-10T13:07:51;6.82;;;5.68;;
6979;SDS011;3530;52.832;10.680;2023-06-10T13:10:36;5.15;;;4.65;;
6979;SDS011;3530;52.832;10.680;2023-06-10T13:13:22;5.15;;;4.65;;
6979;SDS011;3530;52.832;10.680;2023-06-10T13:16:08;4.85;;;4.40;;
6979;SDS011;3530;52.832;10.680;2023-06-10T13:18:54;5.55;;;4.22;;
6979;SDS011;3530;52.832;10.680;2023-06-10T13:21:39;5.05;;;4.65;;
6979;SDS011;3530;52.832;10.680;2023-06-10T13:24:25;5.70;;;5.15;;
6979;SDS011;3530;52.832;10.680;2023-06-10T13:27:11;5.00;;;4.28;;
6979;SDS011;3530;52.832;10.680;2023-06-10T13:29:59;5.22;;;4.65;;
6979;SDS011;3530;52.832;10.680;2023-06-10T13:32:45;5.70;;;4.50;;
6979;SDS011;3530;52.832;10.680;2023-06-10T13:35:30;5.93;;;4.60;;
6979;SDS011;3530;52.832;10.680;2023-06-10T13:38:16;6.13;;;5.22;;
6979;SDS011;3530;52.832;10.680;2023-06-10T13:41:02;5.38;;;4.95;;
6979;SDS011;3530;52.832;10.680;2023-06-10T13:43:47;6.40;;;5.25;;
6979;SDS011;3530;52.832;10.680;2023-06-10T13:46:33;6.53;;;4.85;;
6979;SDS011;3530;52.832;10.680;2023-06-10T13:49:18;6.75;;;5.05;;
6979;SDS011;3530;52.832;10.680;2023-06-10T13:52:05;6.15;;;4.38;;
6979;SDS011;3530;52.832;10.680;2023-06-10T13:54:51;5.85;;;5.20;;
6979;SDS011;3530;52.832;10.680;2023-06-10T13:57:37;6.68;;;5.18;;
6979;SDS011;3530;52.832;10.680;2023-06-10T14:00:22;4.70;;;4.30;;
6979;SDS011;3530;52.832;10.680;2023-06-10T14:03:08;4.85;;;4.45;;
6979;SDS011;3530;52.832;10.680;2023-06-10T14:05:54;5.22;;;4.43;;
6979;SDS011;3530;52.832;10.680;2023-06-10T14:08:39;5.45;;;4.95;;
6979;SDS011;3530;52.832;10.680;2023-06-10T14:11:26;5.57;;;4.93;;
6979;SDS011;3530;52.832;10.680;2023-06-10T14:14:11;4.97;;;4.57;;
6979;SDS011;3530;52.832;10.680;2023-06-10T14:16:57;4.82;;;4.43;;
6979;SDS011;3530;52.832;10.680;2023-06-10T14:19:43;6.68;;;4.82;;
6979;SDS011;3530;52.832;10.680;2023-06-10T14:22:28;7.70;;;4.68;;
6979;SDS011;3530;52.832;10.680;2023-06-10T14:25:14;5.18;;;4.70;;
6979;SDS011;3530;52.832;10.680;2023-06-10T14:28:00;5.03;;;4.57;;
6979;SDS011;3530;52.832;10.680;2023-06-10T14:30:45;5.78;;;5.28;;
6979;SDS011;3530;52.832;10.680;2023-06-10T14:33:31;5.18;;;4.78;;
6979;SDS011;3530;52.832;10.680;2023-06-10T14:36:17;5.50;;;5.10;;
6979;SDS011;3530;52.832;10.680;2023-06-10T14:39:03;6.32;;;4.90;;
6979;SDS011;3530;52.832;10.680;2023-06-10T14:41:49;4.85;;;4.50;;
6979;SDS011;3530;52.832;10.680;2023-06-10T14:44:35;4.88;;;4.45;;
6979;SDS011;3530;52.832;10.680;2023-06-10T14:47:20;5.32;;;4.70;;
6979;SDS011;3530;52.832;10.680;2023-06-10T14:50:06;5.57;;;5.07;;
6979;SDS011;3530;52.832;10.680;2023-06-10T14:52:52;5.10;;;4.70;;
6979;SDS011;3530;52.832;10.680;2023-06-10T14:55:37;6.07;;;4.70;;
6979;SDS011;3530;52.832;10.680;2023-06-10T14:58:23;8.15;;;6.97;;
6979;SDS011;3530;52.832;10.680;2023-06-10T15:01:09;5.50;;;5.00;;
6979;SDS011;3530;52.832;10.680;2023-06-10T15:03:54;5.53;;;5.10;;
6979;SDS011;3530;52.832;10.680;2023-06-10T15:06:40;5.38;;;4.80;;
6979;SDS011;3530;52.832;10.680;2023-06-10T15:09:26;9.70;;;6.10;;
6979;SDS011;3530;52.832;10.680;2023-06-10T15:12:12;8.55;;;4.47;;
6979;SDS011;3530;52.832;10.680;2023-06-10T15:14:58;5.68;;;5.13;;
6979;SDS011;3530;52.832;10.680;2023-06-10T15:17:43;5.22;;;4.75;;
6979;SDS011;3530;52.832;10.680;2023-06-10T15:20:29;5.40;;;4.90;;
6979;SDS011;3530;52.832;10.680;2023-06-10T15:23:15;5.20;;;4.80;;
6979;SDS011;3530;52.832;10.680;2023-06-10T15:26:01;5.72;;;5.25;;
6979;SDS011;3530;52.832;10.680;2023-06-10T15:28:46;5.78;;;4.65;;
6979;SDS011;3530;52.832;10.680;2023-06-10T15:31:32;5.30;;;4.75;;
6979;SDS011;3530;52.832;10.680;2023-06-10T15:34:18;4.95;;;4.55;;
6979;SDS011;3530;52.832;10.680;2023-06-10T15:37:03;6.03;;;5.25;;
6979;SDS011;3530;52.832;10.680;2023-06-10T15:39:49;5.03;;;4.63;;
6979;SDS011;3530;52.832;10.680;2023-06-10T15:42:35;5.70;;;4.70;;
6979;SDS011;3530;52.832;10.680;2023-06-10T15:45:20;5.57;;;4.55;;
6979;SDS011;3530;52.832;10.680;2023-06-10T15:48:06;5.22;;;4.72;;
6979;SDS011;3530;52.832;10.680;2023-06-10T15:50:52;5.32;;;4.82;;
6979;SDS011;3530;52.832;10.680;2023-06-10T15:53:37;4.90;;;4.47;;
6979;SDS011;3530;52.832;10.680;2023-06-10T15:56:23;5.38;;;4.88;;
6979;SDS011;3530;52.832;10.680;2023-06-10T15:59:08;6.72;;;5.63;;
6979;SDS011;3530;52.832;10.680;2023-06-10T16:01:55;5.22;;;4.75;;
6979;SDS011;3530;52.832;10.680;2023-06-10T16:04:41;5.22;;;4.72;;
6979;SDS011;3530;52.832;10.680;2023-06-10T16:07:27;5.25;;;4.82;;
6979;SDS011;3530;52.832;10.680;2023-06-10T16:10:12;4.97;;;4.57;;
6979;SDS011;3530;52.832;10.680;2023-06-10T16:12:58;4.95;;;4.55;;
6979;SDS011;3530;52.832;10.680;2023-06-10T16:15:44;5.20;;;4.80;;
6979;SDS011;3530;52.832;10.680;2023-06-10T16:18:29;6.05;;;4.40;;
6979;SDS011;3530;52.832;10.680;2023-06-10T16:21:15;5.22;;;4.70;;
6979;SDS011;3530;52.832;10.680;2023-06-10T16:24:01;5.72;;;4.85;;
6979;SDS011;3530;52.832;10.680;2023-06-10T16:26:46;5.70;;;5.03;;
6979;SDS011;3530;52.832;10.680;2023-06-10T16:29:33;4.97;;;4.57;;
6979;SDS011;3530;52.832;10.680;2023-06-10T16:32:19;4.88;;;4.57;;
6979;SDS011;3530;52.832;10.680;2023-06-10T16:35:05;7.05;;;4.65;;
6979;SDS011;3530;52.832;10.680;2023-06-10T16:37:51;5.35;;;4.65;;
6979;SDS011;3530;52.832;10.680;2023-06-10T16:40:36;4.95;;;4.65;;
6979;SDS011;3530;52.832;10.680;2023-06-10T16:43:22;8.48;;;5.05;;
6979;SDS011;3530;52.832;10.680;2023-06-10T16:46:09;8.40;;;4.93;;
6979;SDS011;3530;52.832;10.680;2023-06-10T16:48:55;6.15;;;5.20;;
6979;SDS011;3530;52.832;10.680;2023-06-10T16:51:41;8.00;;;5.18;;
6979;SDS011;3530;52.832;10.680;2023-06-10T16:54:26;5.15;;;4.65;;
6979;SDS011;3530;52.832;10.680;2023-06-10T16:57:12;4.82;;;4.35;;
6979;SDS011;3530;52.832;10.680;2023-06-10T16:59:58;5.75;;;4.68;;
6979;SDS011;3530;52.832;10.680;2023-06-10T17:02:43;5.38;;;4.80;;
6979;SDS011;3530;52.832;10.680;2023-06-10T17:05:29;5.10;;;4.70;;
6979;SDS011;3530;52.832;10.680;2023-06-10T17:08:15;5.28;;;4.53;;
6979;SDS011;3530;52.832;10.680;2023-06-10T17:11:01;5.90;;;4.80;;
6979;SDS011;3530;52.832;10.680;2023-06-10T17:13:46;5.43;;;4.82;;